Time;durP1;ratioP1;P1;durP2;ratioP2;P2;SDS_P1;SDS_P2;PMS_P1;PMS_P2;Temp;Humidity;BMP_temperature;BMP_pressure;BME280_temperature;BME280_humidity;BME280_pressure;Samples;Min_cycle;Max_cycle;Signal;HPM_P1;HPM_P2
2023/05/20 00:02:18;;;;;;;;;;;;;;;;;;13003909;19;20017;-65
2023/05/20 00:06:36;;;;;;;11.55;6.03;;;;;;;;;;13002555;19;19950;-65
2023/05/20 00:10:54;;;;;;;11.63;6.80;;;;;;;;;;13001390;19;20497;-65
2023/05/20 00:15:12;;;;;;;12.25;6.97;;;;;;;;;;13001865;19;20007;-66
2023/05/20 00:19:30;;;;;;;;;;;;;;;;;;13001918;19;20299;-65
2023/05/20 00:23:48;;;;;;;11.93;6.97;;;;;;;;;;13001808;19;20295;-65
2023/05/20 00:28:07;;;;;;;15.35;8.73;;;;;;;;;;13001018;19;20010;-66
2023/05/20 00:32:25;;;;;;;10.20;6.05;;;;;;;;;;13001494;19;20025;-66
2023/05/20 00:36:43;;;;;;;10.32;5.75;;;;;;;;;;13001415;19;20018;-66
2023/05/20 00:41:01;;;;;;;13.45;7.10;;;;;;;;;;12999932;19;20007;-70
2023/05/20 00:45:19;;;;;;;11.93;7.13;;;;;;;;;;13000395;19;20006;-66
2023/05/20 00:49:37;;;;;;;11.45;7.28;;;;;;;;;;13000276;19;20011;-66
2023/05/20 00:53:55;;;;;;;11.02;5.97;;;;;;;;;;13000093;19;20014;-65
2023/05/20 00:58:13;;;;;;;9.25;5.75;;;;;;;;;;12999163;19;19999;-65
2023/05/20 01:02:31;;;;;;;10.18;6.13;;;;;;;;;;13000481;19;20018;-65
2023/05/20 01:06:49;;;;;;;8.55;5.53;;;;;;;;;;12999140;19;20014;-66
2023/05/20 01:11:15;;;;;;;8.45;4.93;;;;;;;;;;12998932;19;20018;-66
2023/05/20 01:15:34;;;;;;;7.65;5.28;;;;;;;;;;12998286;19;20006;-65
2023/05/20 01:19:55;;;;;;;8.90;5.00;;;;;;;;;;12996598;19;20021;-65
2023/05/20 01:24:12;;;;;;;6.22;4.50;;;;;;;;;;13003519;19;20316;-66
2023/05/20 01:28:38;;;;;;;8.25;5.00;;;;;;;;;;13010645;19;20434;-65
2023/05/20 01:33:10;;;;;;;7.60;4.75;;;;;;;;;;13011613;19;20015;-66
2023/05/20 01:37:30;;;;;;;8.02;4.55;;;;;;;;;;13010467;19;20034;-65
2023/05/20 01:41:49;;;;;;;10.13;5.30;;;;;;;;;;13009315;19;20010;-66
2023/05/20 01:46:07;;;;;;;8.35;4.50;;;;;;;;;;13006572;19;20010;-66
2023/05/20 01:50:25;;;;;;;6.22;4.22;;;;;;;;;;13009627;19;20007;-65
2023/05/20 01:54:49;;;;;;;;;;;;;;;;;;13010968;19;20021;-65
2023/05/20 01:59:08;;;;;;;7.40;4.70;;;;;;;;;;13008919;19;19923;-66
2023/05/20 02:03:26;;;;;;;8.35;4.90;;;;;;;;;;13009757;19;20323;-64
2023/05/20 02:07:46;;;;;;;9.20;5.32;;;;;;;;;;13009304;19;20022;-64
2023/05/20 02:12:04;;;;;;;7.97;5.00;;;;;;;;;;13009527;19;20018;-65
2023/05/20 02:16:21;;;;;;;;;;;;;;;;;;13009830;19;20026;-65
2023/05/20 02:20:41;;;;;;;7.20;4.25;;;;;;;;;;13008604;19;19918;-65
2023/05/20 02:24:59;;;;;;;7.45;4.53;;;;;;;;;;13008967;19;20017;-65
2023/05/20 02:29:20;;;;;;;5.72;3.67;;;;;;;;;;13007902;19;20007;-65
2023/05/20 02:33:38;;;;;;;7.40;4.18;;;;;;;;;;13008206;19;20025;-65
2023/05/20 02:37:56;;;;;;;5.70;3.67;;;;;;;;;;13008112;19;20501;-65
2023/05/20 02:42:14;;;;;;;;;;;;;;;;;;13007788;19;20465;-65
2023/05/20 02:46:33;;;;;;;5.53;3.35;;;;;;;;;;13006821;19;19914;-65
2023/05/20 02:50:51;;;;;;;6.05;3.75;;;;;;;;;;13006978;19;20014;-65
2023/05/20 02:55:11;;;;;;;6.30;3.83;;;;;;;;;;13005929;19;20010;-65
2023/05/20 02:59:28;;;;;;;6.68;3.72;;;;;;;;;;13006122;19;20019;-65
2023/05/20 03:03:47;;;;;;;6.65;3.40;;;;;;;;;;13006056;19;20330;-65
2023/05/20 03:08:10;;;;;;;6.07;3.67;;;;;;;;;;13006048;19;20454;-65
2023/05/20 03:12:30;;;;;;;6.25;3.60;;;;;;;;;;13007539;19;20496;-65
2023/05/20 03:16:47;;;;;;;4.05;3.03;;;;;;;;;;13006507;19;20011;-65
2023/05/20 03:21:07;;;;;;;5.30;3.25;;;;;;;;;;13005400;19;20003;-67
2023/05/20 03:25:26;;;;;;;8.15;3.67;;;;;;;;;;13005744;19;20470;-65
2023/05/20 03:29:47;;;;;;;4.25;2.90;;;;;;;;;;13005076;19;20017;-65
2023/05/20 03:34:04;;;;;;;4.95;3.28;;;;;;;;;;13004431;19;20007;-65
2023/05/20 03:38:23;;;;;;;6.57;3.97;;;;;;;;;;13004796;19;20351;-65
2023/05/20 03:42:42;;;;;;;4.35;3.17;;;;;;;;;;13004553;19;20015;-65
2023/05/20 03:46:59;;;;;;;6.53;3.75;;;;;;;;;;13002081;19;20007;-65
2023/05/20 03:51:17;;;;;;;5.70;4.10;;;;;;;;;;13004365;19;20094;-66
2023/05/20 03:55:35;;;;;;;;;;;;;;;;;;13004673;19;20426;-65
2023/05/20 03:59:53;;;;;;;4.47;3.13;;;;;;;;;;13003106;19;20272;-65
2023/05/20 04:04:11;;;;;;;5.10;3.58;;;;;;;;;;13002098;19;20461;-65
2023/05/20 04:08:29;;;;;;;5.43;3.65;;;;;;;;;;13004098;19;20017;-65
2023/05/20 04:12:47;;;;;;;6.85;3.75;;;;;;;;;;13003473;19;20022;-66
2023/05/20 04:17:06;;;;;;;5.85;3.92;;;;;;;;;;13002283;19;20015;-66
2023/05/20 04:21:24;;;;;;;6.30;3.78;;;;;;;;;;12999257;19;20017;-65
2023/05/20 04:25:43;;;;;;;6.35;4.10;;;;;;;;;;13002766;19;20122;-65
2023/05/20 04:30:01;;;;;;;6.07;4.30;;;;;;;;;;13001892;19;20011;-66
2023/05/20 04:34:25;;;;;;;7.47;4.70;;;;;;;;;;13001039;19;20018;-65
2023/05/20 04:38:43;;;;;;;7.32;4.03;;;;;;;;;;13001311;19;20014;-67
2023/05/20 04:43:02;;;;;;;5.88;3.70;;;;;;;;;;13000153;19;20006;-68
2023/05/20 04:47:20;;;;;;;5.88;3.38;;;;;;;;;;13001791;19;20476;-66
2023/05/20 04:51:38;;;;;;;6.00;3.83;;;;;;;;;;13001457;19;20010;-66
2023/05/20 04:55:56;;;;;;;6.10;3.92;;;;;;;;;;13001375;19;20011;-65
2023/05/20 05:00:14;;;;;;;7.82;3.80;;;;;;;;;;13011837;19;20038;-66
2023/05/20 05:04:32;;;;;;;;;;;;;;;;;;13013017;19;20007;-66
2023/05/20 05:08:50;;;;;;;5.82;3.67;;;;;;;;;;13013110;19;19919;-65
2023/05/20 05:13:09;;;;;;;;;;;;;;;;;;13012351;19;20006;-66
2023/05/20 05:17:27;;;;;;;9.20;4.60;;;;;;;;;;13012072;19;19938;-64
2023/05/20 05:21:47;;;;;;;7.28;4.13;;;;;;;;;;13010843;19;20013;-65
2023/05/20 05:26:06;;;;;;;8.15;4.60;;;;;;;;;;13011696;19;20010;-65
2023/05/20 05:30:24;;;;;;;8.23;4.55;;;;;;;;;;13011357;19;20082;-65
2023/05/20 05:34:44;;;;;;;8.60;5.00;;;;;;;;;;13011135;19;20034;-64
2023/05/20 05:39:02;;;;;;;8.40;4.90;;;;;;;;;;13009591;19;20003;-65
2023/05/20 05:43:21;;;;;;;7.00;4.50;;;;;;;;;;13010583;19;20018;-64
2023/05/20 05:47:40;;;;;;;8.60;5.82;;;;;;;;;;13009953;19;20025;-64
2023/05/20 05:51:57;;;;;;;8.77;5.13;;;;;;;;;;13010124;19;19995;-65
2023/05/20 05:56:15;;;;;;;9.50;5.75;;;;;;;;;;13009631;19;20122;-64
2023/05/20 06:00:34;;;;;;;8.85;5.07;;;;;;;;;;13009048;19;20392;-65
2023/05/20 06:04:52;;;;;;;11.95;6.05;;;;;;;;;;13009596;19;20003;-65
2023/05/20 06:09:10;;;;;;;11.02;6.53;;;;;;;;;;13007200;19;20014;-64
2023/05/20 06:13:28;;;;;;;11.57;5.97;;;;;;;;;;13009421;19;20038;-64
2023/05/20 06:17:47;;;;;;;9.27;5.18;;;;;;;;;;13008941;19;20397;-65
2023/05/20 06:22:04;;;;;;;10.50;6.22;;;;;;;;;;13007312;19;20091;-64
2023/05/20 06:26:22;;;;;;;8.30;5.32;;;;;;;;;;13008906;19;20007;-64
2023/05/20 06:30:40;;;;;;;11.85;6.95;;;;;;;;;;13008264;19;20011;-64
2023/05/20 06:34:59;;;;;;;7.40;4.75;;;;;;;;;;13008499;19;20369;-64
2023/05/20 06:39:18;;;;;;;15.35;6.90;;;;;;;;;;13007286;19;20012;-64
2023/05/20 06:43:37;;;;;;;16.73;8.20;;;;;;;;;;13007802;19;19999;-64
2023/05/20 06:47:54;;;;;;;9.35;5.50;;;;;;;;;;13006989;19;20006;-64
2023/05/20 06:52:13;;;;;;;9.68;5.93;;;;;;;;;;13006357;19;20014;-64
2023/05/20 06:56:30;;;;;;;9.30;6.38;;;;;;;;;;13007158;19;20007;-65
2023/05/20 07:00:48;;;;;;;;;;;;;;;;;;13007667;19;20007;-65
2023/05/20 07:05:07;;;;;;;8.32;5.57;;;;;;;;;;13004330;19;20276;-64
2023/05/20 07:09:25;;;;;;;13.10;7.47;;;;;;;;;;13006238;19;20349;-65
2023/05/20 07:13:43;;;;;;;10.15;6.82;;;;;;;;;;13007157;19;19999;-64
2023/05/20 07:18:01;;;;;;;9.63;5.65;;;;;;;;;;13004388;19;20030;-66
2023/05/20 07:22:19;;;;;;;12.30;6.30;;;;;;;;;;13002710;19;20022;-64
2023/05/20 07:26:37;;;;;;;12.18;5.40;;;;;;;;;;13006299;19;20466;-65
2023/05/20 07:30:56;;;;;;;13.27;6.05;;;;;;;;;;13005682;19;20025;-65
2023/05/20 07:35:15;;;;;;;10.98;5.97;;;;;;;;;;13005384;19;20314;-65
2023/05/20 07:39:33;;;;;;;8.35;4.65;;;;;;;;;;13003713;19;20009;-66
2023/05/20 07:43:56;;;;;;;15.18;7.28;;;;;;;;;;12843254;19;3633516;-64
2023/05/20 07:48:14;;;;;;;11.23;5.63;;;;;;;;;;13043034;19;20033;-64
2023/05/20 07:52:32;;;;;;;11.82;5.60;;;;;;;;;;13043125;19;20057;-65
2023/05/20 07:57:11;;;;;;;10.13;4.28;;;;;;;;;;13045064;19;20014;-64
2023/05/20 08:01:29;;;;;;;8.15;5.00;;;;;;;;;;13043912;19;20046;-64
2023/05/20 08:05:46;;;;;;;10.93;4.65;;;;;;;;;;13045340;19;20454;-64
2023/05/20 08:10:05;;;;;;;11.10;5.53;;;;;;;;;;13043960;19;20014;-64
2023/05/20 08:14:24;;;;;;;7.57;4.40;;;;;;;;;;13044957;19;20101;-64
2023/05/20 08:18:42;;;;;;;7.25;4.10;;;;;;;;;;13042920;19;20027;-64
2023/05/20 08:22:59;;;;;;;7.05;4.75;;;;;;;;;;13041253;19;20014;-64
2023/05/20 08:27:18;;;;;;;9.52;5.13;;;;;;;;;;13041556;19;20118;-64
2023/05/20 08:31:37;;;;;;;9.93;4.50;;;;;;;;;;13041629;19;20022;-65
2023/05/20 08:35:55;;;;;;;7.85;4.80;;;;;;;;;;13041339;19;20023;-65
2023/05/20 08:40:13;;;;;;;10.65;4.82;;;;;;;;;;13041431;19;20037;-64
2023/05/20 08:44:32;;;;;;;7.55;4.90;;;;;;;;;;13041129;19;20014;-64
2023/05/20 08:48:51;;;;;;;6.05;3.67;;;;;;;;;;13039557;19;20018;-64
2023/05/20 08:53:08;;;;;;;10.95;5.47;;;;;;;;;;13015355;19;20014;-64
2023/05/20 08:57:28;;;;;;;9.48;6.00;;;;;;;;;;12990478;19;20030;-65
2023/05/20 09:01:46;;;;;;;9.57;4.55;;;;;;;;;;12989579;19;20011;-64
2023/05/20 09:06:06;;;;;;;9.23;5.30;;;;;;;;;;12989916;19;20018;-64
2023/05/20 09:10:25;;;;;;;9.57;4.55;;;;;;;;;;12990975;19;20014;-65
2023/05/20 09:14:43;;;;;;;9.38;5.85;;;;;;;;;;12989388;19;20018;-65
2023/05/20 09:19:05;;;;;;;619.03;550.13;;;;;;;;;;12988893;19;20033;-64
2023/05/20 09:23:26;;;;;;;12.43;5.47;;;;;;;;;;12985354;19;20014;-67
2023/05/20 09:27:46;;;;;;;11.20;4.53;;;;;;;;;;12974471;19;20010;-65
2023/05/20 09:32:04;;;;;;;10.85;5.88;;;;;;;;;;12986209;19;20081;-65
2023/05/20 09:36:28;;;;;;;79.30;43.97;;;;;;;;;;12978250;19;20899;-66
2023/05/20 09:40:49;;;;;;;176.02;123.80;;;;;;;;;;12967190;19;20007;-65
2023/05/20 09:45:10;;;;;;;12.50;5.03;;;;;;;;;;12981903;19;20028;-66
2023/05/20 09:49:29;;;;;;;12.18;6.95;;;;;;;;;;12982947;19;20022;-65
2023/05/20 09:53:50;;;;;;;17.33;7.68;;;;;;;;;;12981186;19;20051;-66
2023/05/20 09:58:11;;;;;;;15.80;7.47;;;;;;;;;;12982223;19;20054;-67
2023/05/20 10:02:35;;;;;;;57.40;28.88;;;;;;;;;;12980250;19;20875;-66
2023/05/20 10:07:22;;;;;;;20.00;9.45;;;;;;;;;;12980388;19;20018;-66
2023/05/20 10:12:13;;;;;;;16.73;8.80;;;;;;;;;;12978734;19;20375;-64
2023/05/20 10:16:56;;;;;;;19.05;10.32;;;;;;;;;;12962685;19;20086;-65
2023/05/20 10:21:17;;;;;;;13.95;8.27;;;;;;;;;;12985679;19;20007;-66
2023/05/20 10:25:36;;;;;;;17.77;9.48;;;;;;;;;;12986467;19;20019;-65
2023/05/20 10:29:56;;;;;;;15.68;9.02;;;;;;;;;;12985547;19;20014;-65
2023/05/20 10:34:19;;;;;;;16.13;9.07;;;;;;;;;;12984586;19;20027;-65
2023/05/20 10:38:51;;;;;;;13.30;7.63;;;;;;;;;;12986552;19;20006;-65
2023/05/20 10:43:12;;;;;;;14.50;8.65;;;;;;;;;;12983595;19;20755;-65
2023/05/20 10:47:30;;;;;;;18.73;10.93;;;;;;;;;;12985970;19;20011;-65
2023/05/20 10:51:50;;;;;;;15.75;8.82;;;;;;;;;;12984867;19;20010;-65
2023/05/20 10:56:25;;;;;;;18.42;9.15;;;;;;;;;;12983966;19;20031;-65
2023/05/20 11:00:43;;;;;;;11.15;6.60;;;;;;;;;;12985772;19;20011;-64
2023/05/20 11:05:03;;;;;;;13.18;7.22;;;;;;;;;;12983843;19;20013;-64
2023/05/20 11:09:21;;;;;;;15.13;6.55;;;;;;;;;;12983325;19;20444;-65
2023/05/20 11:13:40;;;;;;;11.25;7.28;;;;;;;;;;12984843;19;20019;-64
2023/05/20 11:18:01;;;;;;;;;;;;;;;;;;12983846;19;20391;-65
2023/05/20 11:22:19;;;;;;;17.23;8.57;;;;;;;;;;12983087;19;19928;-65
2023/05/20 11:26:39;;;;;;;13.15;8.13;;;;;;;;;;12982947;19;20869;-64
2023/05/20 11:30:59;;;;;;;15.13;8.40;;;;;;;;;;12982390;19;20011;-64
2023/05/20 11:35:24;;;;;;;11.88;7.22;;;;;;;;;;12981647;19;20446;-64
2023/05/20 11:39:43;;;;;;;10.80;7.75;;;;;;;;;;12981984;19;20007;-65
2023/05/20 11:44:01;;;;;;;15.60;8.05;;;;;;;;;;12979812;19;20023;-65
2023/05/20 11:48:20;;;;;;;11.63;7.72;;;;;;;;;;12982471;19;20363;-65
2023/05/20 11:52:38;;;;;;;10.73;7.03;;;;;;;;;;12981827;19;20010;-64
2023/05/20 11:56:56;;;;;;;9.88;5.82;;;;;;;;;;12982021;19;20037;-65
2023/05/20 12:01:13;;;;;;;12.57;6.60;;;;;;;;;;12980220;19;20018;-65
2023/05/20 12:05:39;;;;;;;10.20;6.63;;;;;;;;;;12981166;19;20022;-65
2023/05/20 12:09:57;;;;;;;13.30;6.97;;;;;;;;;;12980219;19;20022;-65
2023/05/20 12:14:16;;;;;;;10.55;6.43;;;;;;;;;;12979601;19;20018;-65
2023/05/20 12:18:35;;;;;;;11.60;7.53;;;;;;;;;;12980190;19;20035;-65
2023/05/20 12:22:53;;;;;;;10.45;7.07;;;;;;;;;;12979872;19;20022;-65
2023/05/20 12:27:11;;;;;;;;;;;;;;;;;;12982850;19;20021;-65
2023/05/20 12:31:29;;;;;;;13.23;7.65;;;;;;;;;;12992640;19;19922;-66
2023/05/20 12:35:51;;;;;;;11.23;5.93;;;;;;;;;;12991806;19;20027;-65
2023/05/20 12:40:11;;;;;;;10.60;6.55;;;;;;;;;;12990407;19;20382;-65
2023/05/20 12:44:29;;;;;;;10.82;7.53;;;;;;;;;;12991514;19;20006;-65
2023/05/20 12:48:48;;;;;;;13.18;7.20;;;;;;;;;;12991203;19;20380;-65
2023/05/20 12:53:06;;;;;;;13.15;7.60;;;;;;;;;;12989858;19;20010;-66
2023/05/20 12:57:25;;;;;;;9.20;6.03;;;;;;;;;;12991056;19;20007;-64
2023/05/20 13:01:43;;;;;;;9.88;6.05;;;;;;;;;;12990409;19;20014;-64
2023/05/20 13:06:01;;;;;;;9.02;6.35;;;;;;;;;;12987444;19;20015;-64
2023/05/20 13:10:19;;;;;;;11.00;6.55;;;;;;;;;;12988481;19;20031;-64
2023/05/20 13:14:37;;;;;;;10.13;6.22;;;;;;;;;;12989595;19;20015;-64
2023/05/20 13:18:55;;;;;;;8.05;5.63;;;;;;;;;;12988993;19;20033;-64
2023/05/20 13:23:14;;;;;;;10.75;6.50;;;;;;;;;;12988407;19;20014;-64
2023/05/20 13:27:31;;;;;;;8.23;6.25;;;;;;;;;;12989301;19;20022;-64
2023/05/20 13:31:48;;;;;;;;;;;;;;;;;;12987634;19;20465;-64
2023/05/20 13:36:06;;;;;;;10.15;5.55;;;;;;;;;;12988648;19;19925;-64
2023/05/20 13:40:24;;;;;;;8.23;5.85;;;;;;;;;;12988807;19;20449;-64
2023/05/20 13:44:42;;;;;;;9.77;6.53;;;;;;;;;;12988491;19;20017;-64
2023/05/20 13:49:00;;;;;;;9.25;5.10;;;;;;;;;;12988254;19;20021;-64
2023/05/20 13:53:19;;;;;;;9.40;6.05;;;;;;;;;;12987495;19;20490;-64
2023/05/20 13:57:37;;;;;;;11.95;6.40;;;;;;;;;;12987587;19;20472;-64
2023/05/20 14:01:56;;;;;;;10.95;6.20;;;;;;;;;;12985518;19;20021;-65
2023/05/20 14:06:17;;;;;;;10.30;5.88;;;;;;;;;;12985816;19;20011;-65
2023/05/20 14:10:35;;;;;;;11.35;6.03;;;;;;;;;;12987924;19;20016;-64
2023/05/20 14:14:53;;;;;;;12.70;6.07;;;;;;;;;;12987668;19;20375;-64
2023/05/20 14:19:11;;;;;;;9.65;5.45;;;;;;;;;;12986135;19;20480;-64
2023/05/20 14:23:29;;;;;;;11.07;5.38;;;;;;;;;;12969990;19;20038;-64
2023/05/20 14:27:49;;;;;;;9.68;6.10;;;;;;;;;;12986184;19;20015;-65
2023/05/20 14:32:07;;;;;;;12.07;6.00;;;;;;;;;;12984082;19;20014;-65
2023/05/20 14:36:25;;;;;;;11.60;6.88;;;;;;;;;;12985370;19;20367;-64
2023/05/20 14:40:44;;;;;;;7.35;4.95;;;;;;;;;;12984464;19;20010;-64
2023/05/20 14:45:04;;;;;;;11.55;4.07;;;;;;;;;;12983686;19;20014;-64
2023/05/20 14:49:22;;;;;;;5.13;3.38;;;;;;;;;;12984526;19;20014;-64
2023/05/20 14:53:41;;;;;;;7.65;4.65;;;;;;;;;;12985009;19;20014;-64
2023/05/20 14:57:59;;;;;;;8.45;5.30;;;;;;;;;;12983697;19;20014;-64
2023/05/20 15:02:18;;;;;;;8.52;5.43;;;;;;;;;;12983836;19;20014;-64
2023/05/20 15:06:37;;;;;;;10.63;5.68;;;;;;;;;;12983708;19;20021;-64
2023/05/20 15:10:55;;;;;;;14.15;7.90;;;;;;;;;;12983122;19;20035;-64
2023/05/20 15:15:12;;;;;;;18.67;6.72;;;;;;;;;;12982315;19;20018;-65
2023/05/20 15:19:31;;;;;;;7.38;4.25;;;;;;;;;;12983172;19;20011;-64
2023/05/20 15:23:49;;;;;;;8.30;4.93;;;;;;;;;;12981696;19;20022;-64
2023/05/20 15:28:07;;;;;;;34.05;10.30;;;;;;;;;;12981248;19;20055;-65
2023/05/20 15:32:26;;;;;;;8.50;5.30;;;;;;;;;;12982834;19;20053;-65
2023/05/20 15:36:43;;;;;;;;;;;;;;;;;;12983641;19;20010;-64
2023/05/20 15:41:02;;;;;;;16.13;7.55;;;;;;;;;;12982411;19;19918;-65
2023/05/20 15:45:21;;;;;;;8.70;5.75;;;;;;;;;;12982118;19;20030;-64
2023/05/20 15:49:39;;;;;;;8.20;4.25;;;;;;;;;;12981343;19;20018;-65
2023/05/20 15:53:57;;;;;;;8.18;4.07;;;;;;;;;;12980512;19;20050;-65
2023/05/20 15:58:15;;;;;;;8.68;5.72;;;;;;;;;;12980805;19;20469;-65
2023/05/20 16:02:33;;;;;;;13.65;7.97;;;;;;;;;;12982544;19;20465;-64
2023/05/20 16:06:53;;;;;;;10.10;5.53;;;;;;;;;;12994153;19;20453;-64
2023/05/20 16:11:11;;;;;;;12.15;7.10;;;;;;;;;;12992653;19;20409;-65
2023/05/20 16:15:35;;;;;;;9.75;5.35;;;;;;;;;;12992172;19;20011;-64
2023/05/20 16:19:53;;;;;;;9.32;4.45;;;;;;;;;;12992192;19;19999;-64
2023/05/20 16:24:11;;;;;;;6.13;3.72;;;;;;;;;;12991444;19;20469;-65
2023/05/20 16:28:29;;;;;;;9.18;5.75;;;;;;;;;;12991601;19;20481;-64
2023/05/20 16:32:47;;;;;;;10.20;5.25;;;;;;;;;;12991610;19;20018;-64
2023/05/20 16:37:06;;;;;;;10.68;4.68;;;;;;;;;;12990597;19;20520;-65
2023/05/20 16:41:25;;;;;;;9.23;5.10;;;;;;;;;;12990356;19;20014;-65
2023/05/20 16:45:43;;;;;;;12.20;5.68;;;;;;;;;;12989906;19;20021;-64
2023/05/20 16:50:02;;;;;;;8.07;5.20;;;;;;;;;;12990320;19;20043;-64
2023/05/20 16:54:21;;;;;;;10.18;5.47;;;;;;;;;;12990414;19;20485;-64
2023/05/20 16:58:38;;;;;;;9.88;5.65;;;;;;;;;;12990742;19;20697;-64
2023/05/20 17:02:57;;;;;;;8.57;5.55;;;;;;;;;;12990494;19;20026;-65
2023/05/20 17:07:14;;;;;;;7.38;5.43;;;;;;;;;;12988675;19;20014;-65
2023/05/20 17:11:33;;;;;;;8.50;4.68;;;;;;;;;;12990348;19;20030;-65
2023/05/20 17:15:51;;;;;;;6.82;4.32;;;;;;;;;;12989266;19;20011;-65
2023/05/20 17:20:10;;;;;;;8.25;5.43;;;;;;;;;;12988096;19;20460;-65
2023/05/20 17:24:28;;;;;;;9.85;5.05;;;;;;;;;;12989163;19;20014;-64
2023/05/20 17:28:51;;;;;;;9.70;5.10;;;;;;;;;;12988549;19;20019;-65
2023/05/20 17:33:12;;;;;;;7.78;4.55;;;;;;;;;;12987110;19;20014;-64
2023/05/20 17:37:30;;;;;;;9.73;4.97;;;;;;;;;;12988224;19;20595;-65
2023/05/20 17:41:47;;;;;;;;;;;;;;;;;;12988270;19;20017;-64
2023/05/20 17:46:06;;;;;;;7.07;4.80;;;;;;;;;;12988272;19;19914;-64
2023/05/20 17:50:24;;;;;;;13.35;7.47;;;;;;;;;;12988161;19;20014;-64
2023/05/20 17:54:42;;;;;;;13.52;7.35;;;;;;;;;;12988079;19;20013;-64
2023/05/20 17:59:01;;;;;;;13.73;6.85;;;;;;;;;;12986763;19;20015;-69
2023/05/20 18:03:21;;;;;;;;;;;;;;;;;;12987646;19;20018;-65
2023/05/20 18:07:40;;;;;;;7.05;3.75;;;;;;;;;;12987367;19;19918;-65
2023/05/20 18:11:58;;;;;;;6.72;4.55;;;;;;;;;;12985745;19;20010;-64
2023/05/20 18:16:15;;;;;;;6.07;4.13;;;;;;;;;;12985695;19;20018;-65
2023/05/20 18:20:33;;;;;;;5.88;4.15;;;;;;;;;;12986141;19;20109;-65
2023/05/20 18:24:51;;;;;;;;;;;;;;;;;;12984324;19;20017;-64
2023/05/20 18:29:11;;;;;;;;;;;;;;;;;;12985959;19;19919;-65
2023/05/20 18:33:28;;;;;;;6.25;3.47;;;;;;;;;;12986118;19;19919;-64
2023/05/20 18:37:47;;;;;;;5.25;3.95;;;;;;;;;;12986135;19;20046;-65
2023/05/20 18:42:06;;;;;;;4.93;3.58;;;;;;;;;;12984964;19;20015;-66
2023/05/20 18:46:24;;;;;;;5.72;3.90;;;;;;;;;;12985945;19;20468;-65
2023/05/20 18:50:43;;;;;;;9.25;4.63;;;;;;;;;;12985048;19;20018;-64
2023/05/20 18:55:01;;;;;;;5.80;4.05;;;;;;;;;;12984168;19;20018;-64
2023/05/20 18:59:19;;;;;;;6.55;4.13;;;;;;;;;;12983743;19;20014;-65
2023/05/20 19:03:42;;;;;;;5.35;3.80;;;;;;;;;;12984997;19;20464;-65
2023/05/20 19:08:03;;;;;;;7.60;4.05;;;;;;;;;;12983733;19;20010;-67
2023/05/20 19:12:23;;;;;;;6.95;4.35;;;;;;;;;;12983720;19;20018;-64
2023/05/20 19:16:41;;;;;;;6.70;4.10;;;;;;;;;;12983570;19;20014;-64
2023/05/20 19:21:00;;;;;;;7.57;3.72;;;;;;;;;;12982229;19;20014;-64
2023/05/20 19:25:19;;;;;;;5.97;3.95;;;;;;;;;;12982451;19;20021;-64
2023/05/20 19:29:38;;;;;;;6.53;3.70;;;;;;;;;;12983522;19;20022;-64
2023/05/20 19:33:55;;;;;;;10.65;5.25;;;;;;;;;;12982496;19;20006;-65
2023/05/20 19:38:13;;;;;;;9.32;4.65;;;;;;;;;;12980908;19;20023;-65
2023/05/20 19:42:31;;;;;;;14.10;5.82;;;;;;;;;;12958618;19;20046;-64
2023/05/20 19:46:51;;;;;;;23.75;7.68;;;;;;;;;;12981040;19;20026;-64
2023/05/20 19:51:09;;;;;;;11.65;4.63;;;;;;;;;;12980052;19;20010;-64
2023/05/20 19:55:27;;;;;;;6.43;3.60;;;;;;;;;;12980996;19;20015;-64
2023/05/20 19:59:47;;;;;;;10.05;5.22;;;;;;;;;;12980368;19;20006;-64
2023/05/20 20:04:09;;;;;;;7.07;4.13;;;;;;;;;;12979598;19;20015;-64
2023/05/20 20:08:28;;;;;;;11.15;4.60;;;;;;;;;;12980034;19;20380;-64
2023/05/20 20:12:47;;;;;;;10.20;5.22;;;;;;;;;;12981539;19;20041;-65
2023/05/20 20:17:05;;;;;;;6.97;4.32;;;;;;;;;;12978927;19;20446;-64
2023/05/20 20:21:24;;;;;;;;;;;;;;;;;;12980641;19;20002;-64
2023/05/20 20:25:46;;;;;;;12.70;4.75;;;;;;;;;;12977701;19;19925;-65
2023/05/20 20:30:06;;;;;;;7.25;4.40;;;;;;;;;;12980430;19;20010;-65
2023/05/20 20:34:25;;;;;;;10.07;4.72;;;;;;;;;;12979740;19;20037;-65
2023/05/20 20:38:45;;;;;;;7.30;3.53;;;;;;;;;;12978487;19;20392;-65
2023/05/20 20:43:16;;;;;;;12.05;5.75;;;;;;;;;;12976385;19;20007;-64
2023/05/20 20:47:39;;;;;;;9.23;4.32;;;;;;;;;;12980071;19;20477;-64
2023/05/20 20:51:57;;;;;;;6.00;4.22;;;;;;;;;;12992175;19;20002;-64
2023/05/20 20:56:18;;;;;;;9.45;4.35;;;;;;;;;;12990898;19;20022;-64
2023/05/20 21:00:38;;;;;;;9.68;5.45;;;;;;;;;;12990534;19;20018;-64
2023/05/20 21:04:58;;;;;;;6.70;4.70;;;;;;;;;;12990054;19;20015;-65
2023/05/20 21:09:15;;;;;;;7.05;4.95;;;;;;;;;;12989222;19;20113;-64
2023/05/20 21:13:34;;;;;;;8.75;4.82;;;;;;;;;;12990136;19;20026;-64
2023/05/20 21:17:53;;;;;;;9.23;4.35;;;;;;;;;;12988465;19;20014;-64
2023/05/20 21:22:11;;;;;;;;;;;;;;;;;;12989644;19;20018;-64
2023/05/20 21:26:29;;;;;;;7.80;5.00;;;;;;;;;;12967105;19;20250;-64
2023/05/20 21:30:48;;;;;;;6.13;3.92;;;;;;;;;;12987629;19;20518;-63
2023/05/20 21:35:10;;;;;;;9.35;4.95;;;;;;;;;;12989582;19;20028;-64
2023/05/20 21:39:32;;;;;;;7.18;4.07;;;;;;;;;;12990018;19;20018;-64
2023/05/20 21:43:50;;;;;;;7.00;4.20;;;;;;;;;;12986744;19;20006;-65
2023/05/20 21:48:10;;;;;;;7.65;4.47;;;;;;;;;;12986818;19;20015;-65
2023/05/20 21:52:27;;;;;;;7.20;4.47;;;;;;;;;;12987758;19;20019;-65
2023/05/20 21:56:46;;;;;;;6.38;4.50;;;;;;;;;;12987502;19;20018;-65
2023/05/20 22:01:04;;;;;;;;;;;;;;;;;;12987526;19;20010;-64
2023/05/20 22:05:22;;;;;;;7.82;3.90;;;;;;;;;;12987053;19;19911;-65
2023/05/20 22:09:41;;;;;;;8.13;5.32;;;;;;;;;;12988154;19;20013;-64
2023/05/20 22:13:58;;;;;;;8.88;5.32;;;;;;;;;;12985436;19;20049;-65
2023/05/20 22:18:17;;;;;;;6.70;4.28;;;;;;;;;;12986160;19;20272;-64
2023/05/20 22:22:37;;;;;;;6.70;4.65;;;;;;;;;;12986244;19;20022;-65
2023/05/20 22:26:56;;;;;;;7.43;4.50;;;;;;;;;;12986280;19;20502;-64
2023/05/20 22:31:14;;;;;;;;;;;;;;;;;;12986282;19;20010;-64
2023/05/20 22:35:32;;;;;;;12.10;5.25;;;;;;;;;;12985813;19;19915;-64
2023/05/20 22:39:50;;;;;;;7.45;4.43;;;;;;;;;;12985671;19;20018;-64
2023/05/20 22:44:07;;;;;;;5.65;3.65;;;;;;;;;;12984847;19;20006;-64
2023/05/20 22:48:26;;;;;;;6.13;4.05;;;;;;;;;;12985775;19;20014;-64
2023/05/20 22:52:45;;;;;;;;;;;;;;;;;;12985653;19;20010;-64
2023/05/20 22:57:04;;;;;;;5.88;4.03;;;;;;;;;;12984719;19;19919;-64
2023/05/20 23:01:22;;;;;;;5.28;3.70;;;;;;;;;;12985257;19;20383;-65
2023/05/20 23:05:40;;;;;;;7.90;4.05;;;;;;;;;;12985200;19;20026;-64
2023/05/20 23:09:58;;;;;;;11.40;4.03;;;;;;;;;;12985136;19;20021;-65
2023/05/20 23:14:18;;;;;;;7.13;4.07;;;;;;;;;;12982947;19;20327;-65
2023/05/20 23:18:37;;;;;;;7.78;4.38;;;;;;;;;;12984203;19;20016;-65
2023/05/20 23:22:54;;;;;;;6.63;3.53;;;;;;;;;;12982389;19;20023;-65
2023/05/20 23:27:14;;;;;;;5.75;3.78;;;;;;;;;;12981838;19;20011;-65
2023/05/20 23:31:32;;;;;;;8.88;3.75;;;;;;;;;;12982619;19;20019;-65
2023/05/20 23:35:51;;;;;;;5.18;3.53;;;;;;;;;;12983385;19;20355;-65
2023/05/20 23:40:09;;;;;;;;;;;;;;;;;;12982404;19;20015;-65
2023/05/20 23:44:26;;;;;;;4.50;3.10;;;;;;;;;;12982598;19;19926;-65
2023/05/20 23:48:48;;;;;;;7.30;4.03;;;;;;;;;;12981579;19;20011;-65
2023/05/20 23:53:06;;;;;;;5.40;3.67;;;;;;;;;;12980710;19;20019;-65
2023/05/20 23:57:24;;;;;;;;;;;;;;;;;;12982681;19;20021;-65
